x

Central Caribbean - 210 Nm Sse Of Kingston, Jamaica (42058) Wave Buoy

2:50 - Sun 24th May 2015 All times are EST. -5 hours from GMT.

  • Sig Wave height 8.2ft
  • Swell Direction
  • Peak Period 8s
  • Average Period 6s
  • Wind
    22mph, 27mph gusts
  • Sea Temp 81°f
  • Luft Temp 81°f
  • Sea Pressure 1012.7mb
  • Central Caribbean - 210 Nm Sse Of Kingston, Jamaica
  • Central Caribbean - 210 Nm Sse Of Kingston, Jamaica

More Historic Weather Station data

Upgrade to MSW Pro to gain access to the past 30 days of data for over 8000 Wavebouys and Weather Stations around the globe.

Join Pro

Comparision Forecast

View Surf forecast
   
So 05/24 2:50 8ft 8s 6s 22 27 mph 1012.7mb 81f 81f
1:50 7ft 8s 6s 25 29 mph 1013mb 81f 81f
12:50 7.5ft 8s 6s 22 29 mph 1013.5mb 81f 81f
11:50 8.5ft 8s 6s 22 27 mph 1014.1mb 81f 81f
10:50 8ft 8s 6s 25 27 mph 1014.8mb 81f 81f
9:50 8ft 8s 6s 25 29 mph 1014.9mb 81f 81f
8:50 8ft 8s 6s 25 29 mph 1014.3mb 81f 81f
7:50 8ft 8s 6s 22 27 mph 1014.2mb 81f 81f
6:50 8.5ft 8s 6s 25 29 mph 1013.6mb 81f 81f
5:50 9ft 8s 6s 25 31 mph 1013.3mb 81f 81f
4:50 9ft 8s 6s 25 29 mph 1013.3mb 81f 81f
3:50 9ft 8s 6s 25 31 mph 1013mb 81f 81f
2:50 9ft 8s 6s 25 29 mph 1012.9mb 81f 81f
1:50 9ft 8s 6s 22 27 mph 1013mb 81f 81f
12:50 9ft 8s 6s 27 34 mph 1013.1mb 81f 81f
Sa 05/23 11:50 8ft 8s 6s 27 31 mph 1013.7mb 81f 81f
10:50 9.5ft 8s 6s 25 31 mph 1013.9mb 81f 81f
9:50 9ft 8s 6s 25 31 mph 1014mb 81f 81f
8:50 8ft 8s 6s 29 34 mph 1013.6mb 81f 81f
7:50 8ft 8s 6s 27 34 mph 1013.3mb 81f 81f
6:50 8ft 8s 6s 25 31 mph 1013.1mb 81f 81f
5:50 8ft 8s 6s 25 29 mph 1012.7mb 81f 81f
4:50 8.5ft 8s 6s 25 29 mph 1012.9mb 81f 81f
3:50 7.5ft 8s 6s 22 29 mph 1013mb 81f 81f
2:50 8ft 8s 6s 25 29 mph 1013.6mb 81f 81f
1:50 7.5ft 8s 6s 25 29 mph 1014.4mb 81f 82f
12:50 8ft 7s 6s 22 27 mph 1015.4mb 81f 81f
11:50 8ft 7s 6s 22 27 mph 1015.8mb 81f 81f
10:50 7.5ft 7s 6s 22 29 mph 1016.2mb 81f 81f
9:50 8ft 8s 6s 22 29 mph 1016.4mb 81f 81f
8:50 8ft 8s 6s 25 29 mph 1016.1mb 81f 81f
7:50 7.5ft 8s 6s 22 27 mph 1015.8mb 81f 81f
6:50 8ft 8s 6s 25 31 mph 1015.2mb 81f 81f
5:50 7ft 8s 5s 22 29 mph 1014.5mb 81f 81f
4:50 7ft 7s 6s 25 31 mph 1013.9mb 81f 81f
3:50 7ft 7s 5s 27 31 mph 1013.6mb 81f 81f
2:50 6ft 7s 5s 25 29 mph 1013.2mb 81f 81f
1:50 6ft 7s 5s 27 31 mph 1013.5mb 81f 81f
12:50 6ft 7s 5s 27 31 mph 1014.3mb 81f 81f
Fr 05/22 11:50 6ft 7s 5s 25 29 mph 1015mb 81f 81f
10:50 5.5ft 7s 5s 25 29 mph 1015.5mb 81f 81f
9:50 5.5ft 7s 5s 20 25 mph 1015.5mb 81f 81f
8:50 5.5ft 7s 5s 20 22 mph 1015.3mb 81f 81f
7:50 5ft 6s 5s 20 22 mph 1015mb 81f 81f
6:50 5ft 7s 5s 20 25 mph 1014.3mb 81f 81f
5:50 5ft 6s 5s 18 22 mph 1014mb 81f 81f
4:50 4.5ft 6s 5s 18 22 mph 1013.6mb 81f 81f
3:50 5ft 8s 5s 18 22 mph 1013.4mb 81f 81f
2:50 5ft 7s 5s 18 22 mph 1013.9mb 81f 82f
1:50 5ft 7s 5s 18 22 mph 1014.4mb 81f 81f
12:50 5ft 7s 5s 20 22 mph 1014.8mb 81f 81f
11:50 5ft 7s 5s 18 20 mph 1015.2mb 81f 81f
10:50 5ft 7s 5s 18 22 mph 1015.5mb 81f 81f
9:50 5ft 7s 5s 18 22 mph 1015.8mb 81f 81f
8:50 5ft 6s 5s 16 20 mph 1015.9mb 81f 81f
7:50 5ft 7s 5s 18 20 mph 1015.4mb 81f 81f
6:50 6ft 7s 5s 18 22 mph 1015mb 81f 81f
5:50 5ft 7s 5s 18 22 mph 1014.2mb 81f 81f
4:50 5ft 7s 5s 22 27 mph 1014mb 81f 81f
2:50 5ft 7s 5s 20 25 mph 1013.4mb 81f 81f
1:50 5ft 6s 5s 20 22 mph 1013.2mb 81f 81f
12:50 5ft 6s 5s 18 22 mph 1013.6mb 81f 81f
Do 05/21 11:50 5ft 6s 5s 22 25 mph 1014mb 81f 81f
10:50 5ft 6s 5s 20 22 mph 1014.5mb 81f 81f
9:50 4.5ft 7s 5s 20 22 mph 1014.5mb 81f 81f
8:50 4.5ft 6s 5s 18 20 mph 1013.7mb 81f 81f
7:50 4.5ft 7s 5s 16 18 mph 1013.3mb 81f 81f
6:50 5ft 7s 5s 18 20 mph 1012.3mb 81f 81f
5:50 5ft 6s 5s 16 20 mph 1011.9mb 81f 81f
4:50 5ft 7s 5s 16 20 mph 1011.5mb 81f 81f
3:50 4.5ft 6s 5s 18 22 mph 1011.7mb 81f 81f
2:50 5ft 7s 5s 16 20 mph 1011.9mb 81f 81f
1:50 5ft 7s 5s 18 22 mph 1012.5mb 81f 81f
12:50 5ft 6s 5s 16 20 mph 1013.3mb 81f 81f
11:50 5.5ft 6s 5s 18 22 mph 1013.8mb 81f 81f
10:50 5.5ft 6s 5s 20 25 mph 1013.9mb 81f 81f
9:50 5ft 6s 5s 20 22 mph 1014.1mb 81f 81f
8:50 5ft 6s 5s 20 22 mph 1013.8mb 81f 81f
7:50 5ft 7s 5s 18 22 mph 1013.4mb 81f 81f
6:50 5ft 6s 5s 18 20 mph 1012.7mb 81f 81f
5:50 5ft 6s 5s 18 22 mph 1011.7mb 81f 81f
4:50 5ft 6s 5s 18 22 mph 1011.5mb 81f 81f
3:50 5ft 6s 5s 20 25 mph 1010.9mb 81f 81f
2:50 5.5ft 6s 5s 20 25 mph 1010.9mb 81f 81f
1:50 5ft 6s 5s 20 22 mph 1011.2mb 81f 81f
12:50 5ft 6s 5s 20 22 mph 1011.8mb 81f 81f
Mi 05/20 11:50 5ft 6s 5s 20 22 mph 1012.6mb 81f 81f
10:50 5ft 7s 5s 20 25 mph 1013.2mb 81f 81f
9:50 5ft 7s 5s 20 22 mph 1012.9mb 81f 81f